createdAt,value
2023-05-10T00:00:24.077Z,3.00
2023-05-10T00:03:11.523Z,3.20
2023-05-10T00:05:41.564Z,2.80
2023-05-10T00:08:10.303Z,3.60
2023-05-10T00:10:39.807Z,3.80
2023-05-10T00:13:08.922Z,3.80
2023-05-10T00:15:39.091Z,3.40
2023-05-10T00:18:09.067Z,3.80
2023-05-10T00:20:37.622Z,3.40
2023-05-10T00:23:06.792Z,3.20
2023-05-10T00:25:35.246Z,3.10
2023-05-10T00:28:05.803Z,2.90
2023-05-10T00:30:34.424Z,4.00
2023-05-10T00:33:04.104Z,3.60
2023-05-10T00:35:32.601Z,4.20
2023-05-10T00:38:01.138Z,3.50
2023-05-10T00:40:31.923Z,4.30
2023-05-10T00:43:13.971Z,4.20
2023-05-10T00:45:42.665Z,2.90
2023-05-10T00:48:11.440Z,4.00
2023-05-10T00:50:41.169Z,4.20
2023-05-10T00:53:11.423Z,4.00
2023-05-10T00:55:40.146Z,2.80
2023-05-10T00:58:08.746Z,2.80
2023-05-10T01:00:43.054Z,3.30
2023-05-10T01:03:13.066Z,2.70
2023-05-10T01:05:45.033Z,1.80
2023-05-10T01:08:15.686Z,4.30
2023-05-10T01:10:45.368Z,4.30
2023-05-10T01:13:14.737Z,4.00
2023-05-10T01:15:43.357Z,4.60
2023-05-10T01:18:13.113Z,2.80
2023-05-10T01:20:49.971Z,3.70
2023-05-10T01:23:30.255Z,3.10
2023-05-10T01:26:36.444Z,4.90
2023-05-10T01:29:05.280Z,3.40
2023-05-10T01:32:27.513Z,4.00
2023-05-10T01:35:04.315Z,4.50
2023-05-10T01:37:37.680Z,4.20
2023-05-10T01:40:28.756Z,4.20
2023-05-10T01:43:05.217Z,4.40
2023-05-10T01:45:47.493Z,3.80
2023-05-10T01:48:18.523Z,2.70
2023-05-10T01:50:50.151Z,4.50
2023-05-10T01:53:21.665Z,4.20
2023-05-10T01:55:54.667Z,2.90
2023-05-10T01:58:33.712Z,3.70
2023-05-10T02:01:06.168Z,3.10
2023-05-10T02:03:37.328Z,3.90
2023-05-10T02:06:08.300Z,2.60
2023-05-10T02:08:39.059Z,3.80
2023-05-10T02:11:09.850Z,3.00
2023-05-10T02:13:40.845Z,3.60
2023-05-10T02:16:09.993Z,2.60
2023-05-10T02:18:41.134Z,3.10
2023-05-10T02:21:11.606Z,4.50
2023-05-10T02:23:41.414Z,3.40
2023-05-10T02:26:11.887Z,4.40
2023-05-10T02:28:42.157Z,3.90
2023-05-10T02:31:12.235Z,4.00
2023-05-10T02:33:44.541Z,3.80
2023-05-10T02:36:14.815Z,4.50
2023-05-10T02:38:44.981Z,4.80
2023-05-10T02:41:14.579Z,3.60
2023-05-10T02:43:45.682Z,5.00
2023-05-10T02:46:15.600Z,3.90
2023-05-10T02:48:44.333Z,2.90
2023-05-10T02:51:15.248Z,2.80
2023-05-10T02:53:47.854Z,3.70
2023-05-10T02:56:26.923Z,4.30
2023-05-10T02:58:56.942Z,3.70
2023-05-10T03:01:25.467Z,3.60
2023-05-10T03:03:54.582Z,4.90
2023-05-10T03:06:24.166Z,4.80
2023-05-10T03:08:52.791Z,4.70
2023-05-10T03:11:39.471Z,4.90
2023-05-10T03:14:45.419Z,5.50
2023-05-10T03:17:36.156Z,6.70
2023-05-10T03:20:11.315Z,6.10
2023-05-10T03:22:48.105Z,4.50
2023-05-10T03:25:19.481Z,5.20
2023-05-10T03:27:51.385Z,4.50
2023-05-10T03:30:23.097Z,6.40
2023-05-10T03:32:52.582Z,4.30
2023-05-10T03:35:21.258Z,6.50
2023-05-10T03:37:50.175Z,3.90
2023-05-10T03:40:18.893Z,4.80
2023-05-10T03:42:48.061Z,5.00
2023-05-10T03:45:17.185Z,3.60
2023-05-10T03:47:46.124Z,5.00
2023-05-10T03:50:15.243Z,3.90
2023-05-10T03:52:45.473Z,4.00
2023-05-10T03:55:14.036Z,4.90
2023-05-10T03:57:42.816Z,5.00
2023-05-10T04:00:12.481Z,4.60
2023-05-10T04:02:45.884Z,5.40
2023-05-10T04:05:20.832Z,5.10
2023-05-10T04:07:52.191Z,3.50
2023-05-10T04:10:21.956Z,3.50
2023-05-10T04:12:50.540Z,4.20
2023-05-10T04:15:18.986Z,3.10
2023-05-10T04:17:47.764Z,5.30
2023-05-10T04:20:16.666Z,4.50
2023-05-10T04:22:45.569Z,2.80
2023-05-10T04:25:14.110Z,3.10
2023-05-10T04:27:43.400Z,4.60
2023-05-10T04:30:12.380Z,4.40
2023-05-10T04:32:40.931Z,4.50
2023-05-10T04:35:11.394Z,5.30
2023-05-10T04:37:40.184Z,3.70
2023-05-10T04:40:14.027Z,3.40
2023-05-10T04:42:43.427Z,2.60
2023-05-10T04:45:12.080Z,5.60
2023-05-10T04:47:40.472Z,4.50
2023-05-10T04:50:09.659Z,4.70
2023-05-10T04:52:37.966Z,5.20
2023-05-10T04:55:08.646Z,4.00
2023-05-10T04:57:37.838Z,5.50
2023-05-10T05:00:07.127Z,5.10
2023-05-10T05:02:36.072Z,4.80
2023-05-10T05:05:04.634Z,4.60
2023-05-10T05:07:33.089Z,3.30
2023-05-10T05:10:02.384Z,4.10
2023-05-10T05:12:30.611Z,4.50
2023-05-10T05:14:59.086Z,5.20
2023-05-10T05:17:27.407Z,5.10
2023-05-10T05:19:55.501Z,3.90
2023-05-10T05:22:29.064Z,4.80
2023-05-10T05:25:03.459Z,4.40
2023-05-10T05:27:33.235Z,3.50
2023-05-10T05:30:01.571Z,3.20
2023-05-10T05:32:30.060Z,3.40
2023-05-10T05:34:58.319Z,3.20
2023-05-10T05:37:26.560Z,3.00
2023-05-10T05:39:56.067Z,4.80
2023-05-10T05:42:24.589Z,4.50
2023-05-10T05:44:53.778Z,3.90
2023-05-10T05:47:23.020Z,3.50
2023-05-10T05:49:52.041Z,3.60
2023-05-10T05:52:20.495Z,3.40
2023-05-10T05:54:49.779Z,4.10
2023-05-10T05:57:18.150Z,3.00
2023-05-10T05:59:46.863Z,4.50
2023-05-10T06:02:15.060Z,4.10
2023-05-10T06:04:44.823Z,3.70
2023-05-10T06:07:13.662Z,4.20
2023-05-10T06:09:44.418Z,2.90
2023-05-10T06:12:15.107Z,2.90
2023-05-10T06:14:43.441Z,3.60
2023-05-10T06:17:11.759Z,2.30
2023-05-10T06:19:39.949Z,3.00
2023-05-10T06:22:08.682Z,2.90
2023-05-10T06:24:37.234Z,3.10
2023-05-10T06:27:05.507Z,3.10
2023-05-10T06:29:33.930Z,2.70
2023-05-10T06:32:02.421Z,2.30
2023-05-10T06:34:30.834Z,2.40
2023-05-10T06:36:59.295Z,5.20
2023-05-10T06:39:27.461Z,4.30
2023-05-10T06:41:56.174Z,2.80
2023-05-10T06:44:24.309Z,2.20
2023-05-10T06:46:57.517Z,3.60
2023-05-10T06:49:29.206Z,4.60
2023-05-10T06:51:57.697Z,3.30
2023-05-10T06:54:27.066Z,2.40
2023-05-10T06:56:55.996Z,2.40
2023-05-10T06:59:25.751Z,3.90
2023-05-10T07:01:58.983Z,2.90
2023-05-10T07:04:28.842Z,4.70
2023-05-10T07:07:16.250Z,4.30
2023-05-10T07:10:05.812Z,3.30
2023-05-10T07:13:39.399Z,4.50
2023-05-10T07:16:09.040Z,2.60
2023-05-10T07:18:59.278Z,2.80
2023-05-10T07:21:38.675Z,2.10
2023-05-10T07:24:28.959Z,2.80
2023-05-10T07:28:05.436Z,2.40
2023-05-10T07:30:11.080Z,2.10
2023-05-10T07:32:40.795Z,2.20
2023-05-10T07:35:28.907Z,2.30
2023-05-10T07:38:09.390Z,2.30
2023-05-10T07:40:38.165Z,3.40
2023-05-10T07:43:13.103Z,2.60
2023-05-10T07:45:41.441Z,3.30
2023-05-10T07:48:11.027Z,2.90
2023-05-10T07:50:39.782Z,2.00
2023-05-10T07:53:08.692Z,3.00
2023-05-10T07:55:37.388Z,2.90
2023-05-10T07:58:05.662Z,2.80
2023-05-10T08:00:34.012Z,3.50
2023-05-10T08:03:02.382Z,2.80
2023-05-10T08:05:33.975Z,3.70
2023-05-10T08:08:03.513Z,3.60
2023-05-10T08:10:31.698Z,2.10
2023-05-10T08:12:59.926Z,2.40
2023-05-10T08:15:28.213Z,3.60
2023-05-10T08:17:56.888Z,2.60
2023-05-10T08:20:27.495Z,2.10
2023-05-10T08:22:56.377Z,2.40
2023-05-10T08:25:24.956Z,3.60
2023-05-10T08:27:53.295Z,2.30
2023-05-10T08:30:21.635Z,3.50
2023-05-10T08:32:49.910Z,3.00
2023-05-10T08:35:18.348Z,2.70
2023-05-10T08:37:46.691Z,2.80
2023-05-10T08:40:16.596Z,3.00
2023-05-10T08:42:59.742Z,2.70
2023-05-10T08:45:32.114Z,2.10
2023-05-10T08:48:06.185Z,2.10
2023-05-10T08:50:37.797Z,2.40
2023-05-10T08:53:11.162Z,2.10
2023-05-10T08:55:41.366Z,2.20
2023-05-10T08:58:11.184Z,2.20
2023-05-10T09:00:39.521Z,2.00
2023-05-10T09:03:08.245Z,1.80
2023-05-10T09:05:37.651Z,1.80
2023-05-10T09:08:07.720Z,2.10
2023-05-10T09:10:36.899Z,2.10
2023-05-10T09:13:09.035Z,1.80
2023-05-10T09:15:50.040Z,1.80
2023-05-10T09:18:18.451Z,2.30
2023-05-10T09:20:47.271Z,1.80
2023-05-10T09:23:16.465Z,1.60
2023-05-10T09:25:44.973Z,1.50
2023-05-10T09:28:16.220Z,1.50
2023-05-10T09:30:44.777Z,1.90
2023-05-10T09:33:12.971Z,1.70
2023-05-10T09:35:41.742Z,2.30
2023-05-10T09:38:11.459Z,1.80
2023-05-10T09:40:39.808Z,1.60
2023-05-10T09:43:09.045Z,2.30
2023-05-10T09:45:42.227Z,2.30
2023-05-10T09:48:11.992Z,1.90
2023-05-10T09:50:40.383Z,1.80
2023-05-10T09:53:17.367Z,1.50
2023-05-10T09:55:48.980Z,1.60
2023-05-10T09:58:17.509Z,2.90
2023-05-10T10:00:55.574Z,2.40
2023-05-10T10:03:25.367Z,2.00
2023-05-10T10:05:54.382Z,2.20
2023-05-10T10:08:23.174Z,2.50
2023-05-10T10:10:56.118Z,1.80
2023-05-10T10:13:24.527Z,2.40
2023-05-10T10:15:56.150Z,2.10
2023-05-10T10:18:28.248Z,4.70
2023-05-10T10:20:57.638Z,5.40
2023-05-10T10:23:26.336Z,1.60
2023-05-10T10:26:04.719Z,2.60
2023-05-10T10:29:05.831Z,1.80
2023-05-10T10:31:59.371Z,2.00
2023-05-10T10:34:31.586Z,2.00
2023-05-10T10:37:05.842Z,1.80
2023-05-10T10:39:34.413Z,1.70
2023-05-10T10:42:04.528Z,4.70
2023-05-10T10:44:35.569Z,2.00
2023-05-10T10:47:15.854Z,2.90
2023-05-10T10:49:52.476Z,2.10
2023-05-10T10:52:31.179Z,2.10
2023-05-10T10:55:15.189Z,2.40
2023-05-10T10:58:01.976Z,2.30
2023-05-10T11:00:32.654Z,1.90
2023-05-10T11:03:20.825Z,1.90
2023-05-10T11:05:52.364Z,2.00
2023-05-10T11:08:34.012Z,1.50
2023-05-10T11:11:08.399Z,1.50
2023-05-10T11:13:51.564Z,1.90
2023-05-10T11:16:25.378Z,1.80
2023-05-10T11:18:57.767Z,2.50
2023-05-10T11:21:27.140Z,1.80
2023-05-10T11:23:57.765Z,1.90
2023-05-10T11:26:38.452Z,1.40
2023-05-10T11:29:07.389Z,2.00
2023-05-10T11:31:36.303Z,1.70
2023-05-10T11:34:04.809Z,4.70
2023-05-10T11:36:37.578Z,3.20
2023-05-10T11:39:07.149Z,2.50
2023-05-10T11:41:35.426Z,1.70
2023-05-10T11:44:03.694Z,3.70
2023-05-10T11:46:32.303Z,1.90
2023-05-10T11:49:03.103Z,2.50
2023-05-10T11:51:36.944Z,2.20
2023-05-10T11:54:10.559Z,1.50
2023-05-10T11:56:41.886Z,2.60
2023-05-10T11:59:10.322Z,2.10
2023-05-10T12:01:38.988Z,1.80
2023-05-10T12:04:18.237Z,1.80
2023-05-10T12:06:58.245Z,2.60
2023-05-10T12:09:39.544Z,1.50
2023-05-10T12:12:18.240Z,1.50
2023-05-10T12:14:52.310Z,1.50
2023-05-10T12:17:20.834Z,1.60
2023-05-10T12:19:49.697Z,1.30
2023-05-10T12:22:22.228Z,1.70
2023-05-10T12:24:51.639Z,1.40
2023-05-10T12:27:20.259Z,1.70
2023-05-10T12:29:49.429Z,1.60
2023-05-10T12:32:17.633Z,2.30
2023-05-10T12:34:48.196Z,1.70
2023-05-10T12:37:16.416Z,1.60
2023-05-10T12:39:45.853Z,1.50
2023-05-10T12:42:14.162Z,1.80
2023-05-10T12:44:42.477Z,1.50
2023-05-10T12:47:10.749Z,1.60
2023-05-10T12:49:39.479Z,1.90
2023-05-10T12:52:07.794Z,1.80
2023-05-10T12:54:36.561Z,1.20
2023-05-10T12:57:04.783Z,1.70
2023-05-10T12:59:32.963Z,1.60
2023-05-10T13:02:01.124Z,1.80
2023-05-10T13:04:29.292Z,2.00
2023-05-10T13:07:00.016Z,1.90
2023-05-10T13:09:31.587Z,2.00
2023-05-10T13:11:59.878Z,1.60
2023-05-10T13:14:28.207Z,1.60
2023-05-10T13:16:56.733Z,1.80
2023-05-10T13:19:25.043Z,1.40
2023-05-10T13:21:53.312Z,1.50
2023-05-10T13:24:21.544Z,1.50
2023-05-10T13:26:49.852Z,1.30
2023-05-10T13:29:19.201Z,1.50
2023-05-10T13:31:47.655Z,1.90
2023-05-10T13:34:15.922Z,1.90
2023-05-10T13:36:44.113Z,2.70
2023-05-10T13:39:12.689Z,1.60
2023-05-10T13:41:40.980Z,1.50
2023-05-10T13:44:09.461Z,1.60
2023-05-10T13:46:38.970Z,1.50
2023-05-10T13:49:07.208Z,1.80
2023-05-10T13:51:35.703Z,1.80
2023-05-10T13:54:04.393Z,1.50
2023-05-10T13:56:32.594Z,1.50
2023-05-10T13:59:02.975Z,1.30
2023-05-10T14:01:34.111Z,1.60
2023-05-10T14:04:02.306Z,1.50
2023-05-10T14:06:31.113Z,1.50
2023-05-10T14:08:59.395Z,1.70
2023-05-10T14:11:27.470Z,1.90
2023-05-10T14:13:55.987Z,1.50
2023-05-10T14:16:24.303Z,1.40
2023-05-10T14:18:52.458Z,1.40
2023-05-10T14:21:21.018Z,1.50
2023-05-10T14:23:49.131Z,1.40
2023-05-10T14:26:17.241Z,1.50
2023-05-10T14:28:46.866Z,1.60
2023-05-10T14:31:15.720Z,1.50
2023-05-10T14:33:47.170Z,1.50
2023-05-10T14:36:15.286Z,1.60
2023-05-10T14:38:43.717Z,1.80
2023-05-10T14:41:17.543Z,2.20
2023-05-10T14:43:45.860Z,1.50
2023-05-10T14:46:14.340Z,1.50
2023-05-10T14:48:42.778Z,1.80
2023-05-10T14:51:10.957Z,1.50
2023-05-10T14:53:39.272Z,1.70
2023-05-10T14:56:08.300Z,2.50
2023-05-10T14:58:36.498Z,1.90
2023-05-10T15:01:05.192Z,1.60
2023-05-10T15:03:34.115Z,1.60
2023-05-10T15:06:03.150Z,2.10
2023-05-10T15:08:31.377Z,1.60
2023-05-10T15:10:59.748Z,1.60
2023-05-10T15:13:28.126Z,1.60
2023-05-10T15:15:56.850Z,1.90
2023-05-10T15:18:25.280Z,2.20
2023-05-10T15:20:53.619Z,1.60
2023-05-10T15:23:21.960Z,1.40
2023-05-10T15:25:53.745Z,1.40
2023-05-10T15:28:21.995Z,1.50
2023-05-10T15:30:50.206Z,1.50
2023-05-10T15:33:18.566Z,1.40
2023-05-10T15:35:47.021Z,1.50
2023-05-10T15:38:16.644Z,1.50
2023-05-10T15:40:45.080Z,1.60
2023-05-10T15:43:13.781Z,1.60
2023-05-10T15:45:42.214Z,1.60
2023-05-10T15:48:10.677Z,1.60
2023-05-10T15:50:41.184Z,1.70
2023-05-10T15:53:09.432Z,1.50
2023-05-10T15:55:37.735Z,1.70
2023-05-10T15:58:05.911Z,1.70
2023-05-10T16:00:34.102Z,1.60
2023-05-10T16:03:02.482Z,1.60
2023-05-10T16:05:33.786Z,1.80
2023-05-10T16:08:02.224Z,1.80
2023-05-10T16:10:33.411Z,1.60
2023-05-10T16:13:03.390Z,1.60
2023-05-10T16:15:31.586Z,1.40
2023-05-10T16:18:00.036Z,1.70
2023-05-10T16:20:30.131Z,1.70
2023-05-10T16:23:03.295Z,1.40
2023-05-10T16:25:34.947Z,1.60
2023-05-10T16:28:03.243Z,1.70
2023-05-10T16:30:31.594Z,1.50
2023-05-10T16:33:01.787Z,1.90
2023-05-10T16:35:30.121Z,1.40
2023-05-10T16:37:58.466Z,2.00
2023-05-10T16:40:26.566Z,2.00
2023-05-10T16:42:54.729Z,1.80
2023-05-10T16:45:24.236Z,1.90
2023-05-10T16:47:55.322Z,1.60
2023-05-10T16:50:26.697Z,1.60
2023-05-10T16:53:00.238Z,1.30
2023-05-10T16:55:28.334Z,2.00
2023-05-10T16:57:59.939Z,1.80
2023-05-10T17:00:28.076Z,1.40
2023-05-10T17:02:56.396Z,1.70
2023-05-10T17:05:24.840Z,1.60
2023-05-10T17:07:53.191Z,1.50
2023-05-10T17:10:21.836Z,1.70
2023-05-10T17:12:50.109Z,1.80
2023-05-10T17:15:19.550Z,1.60
2023-05-10T17:17:48.174Z,1.70
2023-05-10T17:20:16.628Z,2.00
2023-05-10T17:22:44.875Z,2.20
2023-05-10T17:25:13.326Z,1.90
2023-05-10T17:27:41.467Z,1.70
2023-05-10T17:30:09.930Z,1.80
2023-05-10T17:32:38.825Z,2.10
2023-05-10T17:35:07.302Z,1.80
2023-05-10T17:37:36.285Z,1.70
2023-05-10T17:40:06.025Z,1.50
2023-05-10T17:42:34.120Z,2.10
2023-05-10T17:45:02.347Z,2.10
2023-05-10T17:47:30.912Z,1.70
2023-05-10T17:49:58.991Z,1.70
2023-05-10T17:52:27.142Z,1.80
2023-05-10T17:54:55.385Z,1.90
2023-05-10T17:57:24.462Z,2.40
2023-05-10T17:59:55.988Z,2.20
2023-05-10T18:02:25.168Z,1.90
2023-05-10T18:04:59.720Z,2.30
2023-05-10T18:07:30.104Z,1.80
2023-05-10T18:09:58.653Z,2.60
2023-05-10T18:12:27.022Z,2.00
2023-05-10T18:14:55.180Z,2.40
2023-05-10T18:17:23.543Z,1.80
2023-05-10T18:19:51.913Z,2.50
2023-05-10T18:22:20.100Z,2.80
2023-05-10T18:24:48.887Z,3.90
2023-05-10T18:27:17.190Z,2.70
2023-05-10T18:29:45.463Z,2.90
2023-05-10T18:32:13.799Z,3.50
2023-05-10T18:34:42.124Z,2.90
2023-05-10T18:37:10.931Z,3.00
2023-05-10T18:39:39.553Z,3.30
2023-05-10T18:42:08.686Z,3.20
2023-05-10T18:44:37.111Z,2.80
2023-05-10T18:47:05.255Z,3.60
2023-05-10T18:49:33.392Z,2.60
2023-05-10T18:52:01.616Z,2.20
2023-05-10T18:54:30.296Z,2.30
2023-05-10T18:56:59.027Z,2.70
2023-05-10T18:59:28.200Z,3.20
2023-05-10T19:01:57.507Z,3.00
2023-05-10T19:04:26.093Z,2.70
2023-05-10T19:06:55.810Z,3.00
2023-05-10T19:09:26.670Z,2.80
2023-05-10T19:11:54.937Z,2.50
2023-05-10T19:14:25.049Z,2.10
2023-05-10T19:16:54.461Z,2.60
2023-05-10T19:19:24.946Z,2.30
2023-05-10T19:21:53.276Z,3.30
2023-05-10T19:24:23.532Z,3.10
2023-05-10T19:26:52.340Z,3.60
2023-05-10T19:29:20.927Z,3.40
2023-05-10T19:31:49.619Z,2.80
2023-05-10T19:34:18.073Z,2.70
2023-05-10T19:36:46.408Z,3.50
2023-05-10T19:39:15.111Z,3.20
2023-05-10T19:41:43.362Z,4.50
2023-05-10T19:44:11.533Z,3.30
2023-05-10T19:46:40.750Z,2.80
2023-05-10T19:49:09.835Z,2.80
2023-05-10T19:51:37.908Z,4.20
2023-05-10T19:54:06.323Z,2.70
2023-05-10T19:56:34.939Z,2.90
2023-05-10T19:59:03.867Z,2.60
2023-05-10T20:01:33.033Z,3.70
2023-05-10T20:04:01.492Z,3.60
2023-05-10T20:06:29.945Z,3.70
2023-05-10T20:08:58.332Z,2.90
2023-05-10T20:11:26.554Z,3.30
2023-05-10T20:13:54.671Z,2.30
2023-05-10T20:16:25.078Z,4.60
2023-05-10T20:18:55.359Z,4.40
2023-05-10T20:21:24.121Z,4.70
2023-05-10T20:23:52.369Z,3.90
2023-05-10T20:26:21.655Z,5.00
2023-05-10T20:28:50.919Z,3.10
2023-05-10T20:31:19.165Z,4.10
2023-05-10T20:33:47.289Z,4.20
2023-05-10T20:36:15.394Z,3.80
2023-05-10T20:38:43.661Z,2.70
2023-05-10T20:41:11.828Z,2.60
2023-05-10T20:43:40.076Z,2.80
2023-05-10T20:46:08.383Z,2.30
2023-05-10T20:48:36.590Z,2.20
2023-05-10T20:51:04.700Z,3.40
2023-05-10T20:53:32.754Z,2.80
2023-05-10T20:56:00.809Z,3.30
2023-05-10T20:58:28.920Z,4.20
2023-05-10T21:00:57.117Z,4.50
2023-05-10T21:03:25.469Z,4.70
2023-05-10T21:05:55.599Z,4.70
2023-05-10T21:08:23.878Z,4.40
2023-05-10T21:10:52.002Z,4.90
2023-05-10T21:13:20.149Z,3.90
2023-05-10T21:15:48.223Z,3.00
2023-05-10T21:18:16.654Z,3.70
2023-05-10T21:20:44.862Z,2.90
2023-05-10T21:23:13.000Z,3.00
2023-05-10T21:25:41.183Z,3.10
2023-05-10T21:28:09.263Z,2.50
2023-05-10T21:30:37.347Z,3.00
2023-05-10T21:33:05.646Z,3.30
2023-05-10T21:35:33.916Z,3.20
2023-05-10T21:38:02.336Z,2.50
2023-05-10T21:40:56.090Z,2.90
2023-05-10T21:43:24.224Z,3.50
2023-05-10T21:45:52.500Z,2.90
2023-05-10T21:48:21.145Z,2.80
2023-05-10T21:50:49.251Z,3.00
2023-05-10T21:53:17.866Z,2.60
2023-05-10T21:55:45.950Z,2.80
2023-05-10T21:58:14.098Z,1.90
2023-05-10T22:00:42.324Z,2.10
2023-05-10T22:03:10.701Z,2.00
2023-05-10T22:05:39.266Z,2.50
2023-05-10T22:08:07.976Z,2.30
2023-05-10T22:10:36.080Z,3.60
2023-05-10T22:13:04.256Z,3.10
2023-05-10T22:15:34.116Z,3.70
2023-05-10T22:18:03.948Z,3.00
2023-05-10T22:20:32.626Z,2.80
2023-05-10T22:23:01.092Z,2.70
2023-05-10T22:25:29.296Z,2.40
2023-05-10T22:27:57.441Z,3.40
2023-05-10T22:30:25.979Z,4.30
2023-05-10T22:32:54.312Z,2.80
2023-05-10T22:35:22.555Z,2.80
2023-05-10T22:37:50.685Z,2.30
2023-05-10T22:40:19.018Z,2.80
2023-05-10T22:42:47.515Z,2.80
2023-05-10T22:45:15.761Z,3.40
2023-05-10T22:47:43.972Z,2.50
2023-05-10T22:50:12.557Z,2.70
2023-05-10T22:52:40.672Z,3.60
2023-05-10T22:55:09.819Z,3.50
2023-05-10T22:57:38.314Z,3.20
2023-05-10T23:00:07.922Z,3.40
2023-05-10T23:02:36.041Z,3.10
2023-05-10T23:05:05.864Z,3.50
2023-05-10T23:07:34.281Z,3.00
2023-05-10T23:10:02.484Z,1.70
2023-05-10T23:12:31.533Z,2.10
2023-05-10T23:14:59.722Z,3.00
2023-05-10T23:17:27.841Z,3.40
2023-05-10T23:19:56.020Z,3.10
2023-05-10T23:22:24.152Z,3.60
2023-05-10T23:24:52.326Z,2.60
2023-05-10T23:27:20.375Z,2.60
2023-05-10T23:29:52.484Z,2.00
2023-05-10T23:32:20.540Z,3.30
2023-05-10T23:34:48.851Z,3.30
2023-05-10T23:37:17.530Z,3.30
2023-05-10T23:39:46.183Z,2.60
2023-05-10T23:42:14.478Z,2.20
2023-05-10T23:44:42.617Z,2.10
2023-05-10T23:47:11.082Z,2.70
2023-05-10T23:49:42.073Z,2.40
2023-05-10T23:52:10.518Z,3.80
2023-05-10T23:54:38.829Z,3.20
2023-05-10T23:57:06.937Z,3.10
2023-05-10T23:59:34.996Z,3.10
